^^
Meteo Knjazevac Station Historical Data
Daily Summary for January 20, 2022 Units:  Metric    English   Both
Daily Weekly Monthly Yearly Custom
  High: Low: Average:
Temperature: 10.4 °C -3.3 °C 2.9 °C
Dew Point: 1.2 °C -7.3 °C -3.4 °C
Humidity: 80% 49% 65%
Wind Speed: 20.9km/h 0km/h 8.2km/h
Wind Gust: 32.2km/h - -
Wind- - SSE
Pressure: 1025.6 hPa 1018.5 hPa -
Precipitation: 0 mm    
Historical Graphs
 
 
Tabular Data for January 20, 2022
Time Temperature Dew Point Pressure Wind Wind Speed Wind Gust Humidity Rainfall Rate (Hourly) solar Conditions
00:00 -2.3 °C -5.3 °C 1025.6 hPa East 4.8 km/h 9.7 km/h 80% 0 mm 0 W/m2
00:10 -2.2 °C -5.2 °C 1025.3 hPa ESE 8 km/h 11.3 km/h 80% 0 mm 0 W/m2
00:20 -2.1 °C -5.2 °C 1024.9 hPa East 8 km/h 14.5 km/h 79% 0 mm 0 W/m2
00:30 -1.8 °C -5.1 °C 1024.9 hPa SE 4.8 km/h 12.9 km/h 78% 0 mm 0 W/m2
00:40 -1.5 °C -5 °C 1024.9 hPa SE 8 km/h 12.9 km/h 77% 0 mm 0 W/m2
00:50 -1.6 °C -5.1 °C 1024.9 hPa SE 3.2 km/h 12.9 km/h 77% 0 mm 0 W/m2
01:00 -2.1 °C -5.4 °C 1024.9 hPa ESE 3.2 km/h 9.7 km/h 78% 0 mm 0 W/m2
01:10 -2.1 °C -5.4 °C 1024.9 hPa East 1.6 km/h 9.7 km/h 78% 0 mm 0 W/m2
01:20 -2.2 °C -5.6 °C 1024.9 hPa NE 1.6 km/h 9.7 km/h 78% 0 mm 0 W/m2
01:30 -2.3 °C -5.6 °C 1024.9 hPa ESE 8 km/h 12.9 km/h 78% 0 mm 0 W/m2
01:40 -2 °C -5.3 °C 1024.9 hPa East 9.7 km/h 14.5 km/h 78% 0 mm 0 W/m2
01:50 -2 °C -5.5 °C 1024.9 hPa East 3.2 km/h 14.5 km/h 77% 0 mm 0 W/m2
02:00 -2 °C -5.5 °C 1024.9 hPa ESE 4.8 km/h 11.3 km/h 77% 0 mm 0 W/m2
02:10 -2 °C -5.5 °C 1024.9 hPa ESE 1.6 km/h 9.7 km/h 77% 0 mm 0 W/m2
02:20 -2.3 °C -5.8 °C 1024.6 hPa East 1.6 km/h 3.2 km/h 77% 0 mm 0 W/m2
02:30 -2.5 °C -6 °C 1024.6 hPa Calm   12.9 km/h 77% 0 mm 0 W/m2
02:40 -2.5 °C -6 °C 1024.6 hPa ESE 4.8 km/h 11.3 km/h 77% 0 mm 0 W/m2
02:50 -2.5 °C -6 °C 1024.6 hPa ESE 1.6 km/h 14.5 km/h 77% 0 mm 0 W/m2
03:00 -2.7 °C -6.2 °C 1024.3 hPa NE 8 km/h 11.3 km/h 77% 0 mm 0 W/m2
03:10 -2.6 °C -6.1 °C 1024.3 hPa NE 1.6 km/h 12.9 km/h 77% 0 mm 0 W/m2
03:20 -2.6 °C -6.1 °C 1024.3 hPa NNE 4.8 km/h 11.3 km/h 77% 0 mm 0 W/m2
03:30 -2.5 °C -6.3 °C 1023.9 hPa NNE 4.8 km/h 9.7 km/h 75% 0 mm 0 W/m2
03:40 -2.6 °C -6.4 °C 1023.9 hPa NNE 3.2 km/h 11.3 km/h 75% 0 mm 0 W/m2
03:50 -2.5 °C -6.5 °C 1023.9 hPa NE 4.8 km/h 11.3 km/h 74% 0 mm 0 W/m2
04:00 -2.2 °C -6.4 °C 1023.9 hPa SE 4.8 km/h 16.1 km/h 73% 0 mm 0 W/m2
04:10 -2.1 °C -6.3 °C 1023.9 hPa SSE 4.8 km/h 11.3 km/h 73% 0 mm 0 W/m2
04:20 -2.2 °C -6.4 °C 1023.6 hPa ENE 3.2 km/h 11.3 km/h 73% 0 mm 0 W/m2
04:30 -2.4 °C -6.4 °C 1023.6 hPa NNE 4.8 km/h 12.9 km/h 74% 0 mm 0 W/m2
04:40 -2.5 °C -6.5 °C 1023.6 hPa NNE 4.8 km/h 12.9 km/h 74% 0 mm 0 W/m2
04:50 -2.3 °C -6.5 °C 1023.6 hPa ESE 9.7 km/h 14.5 km/h 73% 0 mm 0 W/m2
05:00 -2.2 °C -6.6 °C 1023.6 hPa East 9.7 km/h 16.1 km/h 72% 0 mm 0 W/m2
05:10 -2 °C -6.4 °C 1023.6 hPa SE 4.8 km/h 12.9 km/h 72% 0 mm 0 W/m2
05:20 -2.1 °C -6.5 °C 1023.6 hPa SSW 1.6 km/h 8 km/h 72% 0 mm 0 W/m2
05:30 -2.4 °C -6.8 °C 1023.6 hPa NW 1.6 km/h 8 km/h 72% 0 mm 0 W/m2
05:40 -2.6 °C -6.8 °C 1023.6 hPa SSW 3.2 km/h 12.9 km/h 73% 0 mm 0 W/m2
05:50 -2.5 °C -6.7 °C 1023.6 hPa South 1.6 km/h 12.9 km/h 73% 0 mm 0 W/m2
06:00 -2.7 °C -6.9 °C 1023.6 hPa WNW 1.6 km/h 6.4 km/h 73% 0 mm 0 W/m2
06:10 -3 °C -7 °C 1023.6 hPa WNW 3.2 km/h 4.8 km/h 74% 0 mm 0 W/m2
06:20 -3.2 °C -7 °C 1023.6 hPa WNW 1.6 km/h 4.8 km/h 75% 0 mm 0 W/m2
06:30 -3.3 °C -7.1 °C 1023.6 hPa NW 1.6 km/h 8 km/h 75% 0 mm 0 W/m2
06:40 -3.3 °C -7.3 °C 1023.6 hPa NW 3.2 km/h 8 km/h 74% 0 mm 0 W/m2
06:50 -3.2 °C -7.2 °C 1023.6 hPa NNE 3.2 km/h 9.7 km/h 74% 0 mm 0 W/m2
07:00 -3.1 °C -7.1 °C 1023.6 hPa NNE 3.2 km/h 11.3 km/h 74% 0 mm 5 W/m2
07:10 -2.9 °C -7.1 °C 1023.9 hPa NE 4.8 km/h 12.9 km/h 73% 0 mm 11 W/m2
07:20 -2.5 °C -6.8 °C 1023.6 hPa East 9.7 km/h 12.9 km/h 72% 0 mm 15 W/m2
07:30 -2.2 °C -6.6 °C 1023.9 hPa NE 9.7 km/h 19.3 km/h 72% 0 mm 31 W/m2
07:40 -2 °C -6.7 °C 1023.6 hPa ENE 8 km/h 17.7 km/h 70% 0 mm 49 W/m2
07:50 -1.7 °C -6.4 °C 1023.6 hPa NE 8 km/h 16.1 km/h 70% 0 mm 68 W/m2
08:00 -1.2 °C -6.2 °C 1023.9 hPa NE 4.8 km/h 14.5 km/h 69% 0 mm 89 W/m2
08:10 -0.6 °C -5.8 °C 1023.9 hPa NE 4.8 km/h 9.7 km/h 68% 0 mm 109 W/m2
08:20 -0.1 °C -5.3 °C 1023.6 hPa East 9.7 km/h 20.9 km/h 68% 0 mm 130 W/m2
08:30 0.5 °C -5.3 °C 1023.6 hPa ENE 9.7 km/h 12.9 km/h 65% 0 mm 151 W/m2
08:40 1 °C -4.8 °C 1023.6 hPa ENE 9.7 km/h 12.9 km/h 65% 0 mm 172 W/m2
08:50 1.4 °C -4.4 °C 1023.6 hPa NE 4.8 km/h 11.3 km/h 65% 0 mm 192 W/m2
09:00 1.9 °C -4.2 °C 1023.6 hPa ENE 1.6 km/h 11.3 km/h 64% 0 mm 212 W/m2
09:10 2.5 °C -3.8 °C 1023.6 hPa NNE 4.8 km/h 11.3 km/h 63% 0 mm 231 W/m2
09:20 3 °C -3.6 °C 1023.6 hPa East 8 km/h 14.5 km/h 62% 0 mm 249 W/m2
09:30 3.6 °C -3.5 °C 1023.6 hPa East 8 km/h 14.5 km/h 60% 0 mm 266 W/m2
09:40 4.1 °C -3.2 °C 1023.6 hPa ESE 9.7 km/h 14.5 km/h 59% 0 mm 283 W/m2
09:50 4.8 °C -2.5 °C 1023.6 hPa South 3.2 km/h 9.7 km/h 59% 0 mm 298 W/m2
10:00 5.6 °C -2.1 °C 1023.6 hPa SW 4.8 km/h 19.3 km/h 58% 0 mm 313 W/m2
10:10 5.9 °C -2.4 °C 1023.6 hPa SW 8 km/h 24.1 km/h 55% 0 mm 326 W/m2
10:20 6.2 °C -2.2 °C 1023.6 hPa SW 14.5 km/h 22.5 km/h 55% 0 mm 338 W/m2
10:30 6.4 °C -2.2 °C 1023.2 hPa SW 20.9 km/h 29 km/h 54% 0 mm 348 W/m2
10:50 6.7 °C -1.9 °C 1023.2 hPa SW 16.1 km/h 30.6 km/h 54% 0 mm 365 W/m2
11:00 7 °C -1.7 °C 1023.2 hPa SW 16.1 km/h 32.2 km/h 54% 0 mm 372 W/m2
11:10 7.3 °C -1.4 °C 1022.9 hPa SW 16.1 km/h 32.2 km/h 54% 0 mm 377 W/m2
11:20 7.5 °C -1.5 °C 1022.6 hPa SW 12.9 km/h 32.2 km/h 53% 0 mm 380 W/m2
11:30 7.8 °C -1.2 °C 1022.6 hPa SW 12.9 km/h 27.4 km/h 53% 0 mm 382 W/m2
11:40 8.1 °C -1 °C 1022.6 hPa SW 12.9 km/h 24.1 km/h 53% 0 mm 383 W/m2
11:50 8.3 °C -0.7 °C 1022.2 hPa SW 12.9 km/h 20.9 km/h 53% 0 mm 382 W/m2
12:00 8.6 °C -0.4 °C 1021.9 hPa SW 11.3 km/h 22.5 km/h 53% 0 mm 380 W/m2
12:10 8.7 °C -1.2 °C 1021.9 hPa SW 16.1 km/h 24.1 km/h 50% 0 mm 376 W/m2
12:20 9.1 °C -0.8 °C 1021.6 hPa SW 12.9 km/h 25.7 km/h 50% 0 mm 371 W/m2
12:30 9.1 °C -0.8 °C 1021.6 hPa SW 14.5 km/h 22.5 km/h 50% 0 mm 364 W/m2
12:40 9.2 °C -1 °C 1021.6 hPa SW 16.1 km/h 22.5 km/h 49% 0 mm 356 W/m2
12:50 9.3 °C -0.9 °C 1021.2 hPa SW 12.9 km/h 22.5 km/h 49% 0 mm 346 W/m2
13:00 9.6 °C -0.6 °C 1021.2 hPa SW 12.9 km/h 20.9 km/h 49% 0 mm 336 W/m2
13:10 9.7 °C -0.5 °C 1020.9 hPa SW 9.7 km/h 19.3 km/h 49% 0 mm 324 W/m2
13:20 9.9 °C -0.3 °C 1020.5 hPa SW 9.7 km/h 19.3 km/h 49% 0 mm 310 W/m2
13:30 10 °C -0.2 °C 1020.5 hPa SW 11.3 km/h 19.3 km/h 49% 0 mm 296 W/m2
13:40 10.2 °C 0 °C 1020.5 hPa SW 11.3 km/h 19.3 km/h 49% 0 mm 280 W/m2
13:50 10.3 °C 0.1 °C 1020.5 hPa SW 9.7 km/h 20.9 km/h 49% 0 mm 264 W/m2
14:00 10.4 °C 0.1 °C 1020.2 hPa SW 11.3 km/h 19.3 km/h 49% 0 mm 246 W/m2
14:10 10.3 °C 0.1 °C 1020.2 hPa SW 11.3 km/h 19.3 km/h 49% 0 mm 228 W/m2
14:20 10.3 °C 0.3 °C 1019.9 hPa SW 12.9 km/h 22.5 km/h 50% 0 mm 208 W/m2
14:30 10.4 °C 0.4 °C 1019.9 hPa SW 9.7 km/h 20.9 km/h 50% 0 mm 163 W/m2
14:40 9.9 °C -0.1 °C 1019.9 hPa SW 16.1 km/h 29 km/h 50% 0 mm 113 W/m2
14:50 9.6 °C 0.2 °C 1019.9 hPa SW 16.1 km/h 25.7 km/h 52% 0 mm 74 W/m2
15:00 9.4 °C 0.3 °C 1019.5 hPa SW 14.5 km/h 24.1 km/h 53% 0 mm 62 W/m2
15:10 9.2 °C 0.4 °C 1019.5 hPa SW 11.3 km/h 24.1 km/h 54% 0 mm 37 W/m2
15:20 9 °C 0.2 °C 1019.5 hPa WSW 8 km/h 20.9 km/h 54% 0 mm 23 W/m2
15:30 8.9 °C 0.3 °C 1019.2 hPa SW 11.3 km/h 16.1 km/h 55% 0 mm 24 W/m2
15:40 8.8 °C 0.7 °C 1019.2 hPa WSW 11.3 km/h 19.3 km/h 57% 0 mm 24 W/m2
15:50 8.7 °C 0.7 °C 1018.8 hPa SW 9.7 km/h 16.1 km/h 57% 0 mm 16 W/m2
16:00 8.6 °C 0.8 °C 1018.8 hPa SW 8 km/h 14.5 km/h 58% 0 mm 13 W/m2
16:10 8.6 °C 0.7 °C 1018.5 hPa SW 9.7 km/h 19.3 km/h 58% 0 mm 11 W/m2
16:20 8.5 °C 0.7 °C 1018.5 hPa WSW 12.9 km/h 22.5 km/h 58% 0 mm 6 W/m2
16:30 8.4 °C 0.7 °C 1018.5 hPa SW 12.9 km/h 22.5 km/h 58% 0 mm 0 W/m2
16:40 8.4 °C 0.6 °C 1018.8 hPa SW 12.9 km/h 22.5 km/h 58% 0 mm 0 W/m2
16:50 8.2 °C 0.7 °C 1018.8 hPa SW 11.3 km/h 20.9 km/h 59% 0 mm 0 W/m2
17:00 8.2 °C 0.7 °C 1018.5 hPa SW 12.9 km/h 24.1 km/h 59% 0 mm 0 W/m2
17:10 8.2 °C 0.9 °C 1018.5 hPa SW 14.5 km/h 27.4 km/h 60% 0 mm 0 W/m2
17:20 8.2 °C 0.9 °C 1018.5 hPa SW 12.9 km/h 22.5 km/h 60% 0 mm 0 W/m2
17:30 8.1 °C 1.2 °C 1018.5 hPa SW 12.9 km/h 22.5 km/h 62% 0 mm 0 W/m2
17:40 8 °C 1.2 °C 1018.5 hPa SW 11.3 km/h 20.9 km/h 62% 0 mm 0 W/m2
Knjazevac, Serbia
Compliments of Weather Underground - 2 mb